createdAt,value
2022-12-11T00:02:11.734Z,3.10
2022-12-11T00:04:38.777Z,3.00
2022-12-11T00:07:05.785Z,3.10
2022-12-11T00:09:32.833Z,3.10
2022-12-11T00:11:59.862Z,3.00
2022-12-11T00:14:26.856Z,3.30
2022-12-11T00:16:53.798Z,3.10
2022-12-11T00:19:21.061Z,3.10
2022-12-11T00:21:48.084Z,3.10
2022-12-11T00:24:17.490Z,3.10
2022-12-11T00:26:44.563Z,3.10
2022-12-11T00:29:14.676Z,3.00
2022-12-11T00:31:44.963Z,3.00
2022-12-11T00:34:12.134Z,3.10
2022-12-11T00:36:39.677Z,3.10
2022-12-11T00:39:07.419Z,3.10
2022-12-11T00:41:34.634Z,3.00
2022-12-11T00:44:02.167Z,3.00
2022-12-11T00:46:29.240Z,3.00
2022-12-11T00:48:56.235Z,3.00
2022-12-11T00:51:23.523Z,3.00
2022-12-11T00:53:50.671Z,3.20
2022-12-11T00:56:22.193Z,3.00
2022-12-11T00:58:50.072Z,3.00
2022-12-11T01:01:22.836Z,3.00
2022-12-11T01:03:53.558Z,3.10
2022-12-11T01:06:24.924Z,3.10
2022-12-11T01:09:11.796Z,3.00
2022-12-11T01:11:39.912Z,3.00
2022-12-11T01:14:07.203Z,3.00
2022-12-11T01:16:34.581Z,2.90
2022-12-11T01:19:01.609Z,2.90
2022-12-11T01:21:28.687Z,2.90
2022-12-11T01:23:55.801Z,2.90
2022-12-11T01:26:23.543Z,2.90
2022-12-11T01:28:51.923Z,2.90
2022-12-11T01:31:20.784Z,2.90
2022-12-11T01:33:47.964Z,2.70
2022-12-11T01:36:20.361Z,3.00
2022-12-11T01:38:49.155Z,2.80
2022-12-11T01:41:18.258Z,2.90
2022-12-11T01:43:57.686Z,2.90
2022-12-11T01:46:25.725Z,2.90
2022-12-11T01:48:54.099Z,2.70
2022-12-11T01:51:22.769Z,2.80
2022-12-11T01:53:56.754Z,2.90
2022-12-11T01:56:24.578Z,3.00
2022-12-11T01:58:57.821Z,2.70
2022-12-11T02:01:44.768Z,3.00
2022-12-11T02:04:13.543Z,2.70
2022-12-11T02:06:47.779Z,2.70
2022-12-11T02:09:26.721Z,2.90
2022-12-11T02:12:01.260Z,2.70
2022-12-11T02:14:40.075Z,2.70
2022-12-11T02:17:37.375Z,2.60
2022-12-11T02:20:22.956Z,2.60
2022-12-11T02:23:27.631Z,2.60
2022-12-11T02:26:59.767Z,2.60
2022-12-11T02:29:37.043Z,2.60
2022-12-11T02:32:14.053Z,2.00
2022-12-11T02:34:49.466Z,2.50
2022-12-11T02:37:23.430Z,2.70
2022-12-11T02:39:55.034Z,2.80
2022-12-11T02:42:30.665Z,2.70
2022-12-11T02:45:01.709Z,2.60
2022-12-11T02:47:32.713Z,2.90
2022-12-11T02:50:06.471Z,2.60
2022-12-11T02:52:34.988Z,2.80
2022-12-11T02:55:07.755Z,2.60
2022-12-11T02:58:01.849Z,2.60
2022-12-11T03:00:28.872Z,2.60
2022-12-11T03:02:57.347Z,2.70
2022-12-11T03:05:24.751Z,2.60
2022-12-11T03:07:51.932Z,2.70
2022-12-11T03:10:20.242Z,2.70
2022-12-11T03:12:53.911Z,2.60
2022-12-11T03:15:27.181Z,2.50
2022-12-11T03:18:14.117Z,2.70
2022-12-11T03:21:04.281Z,2.60
2022-12-11T03:23:58.223Z,2.70
2022-12-11T03:26:25.365Z,2.70
2022-12-11T03:29:16.505Z,2.50
2022-12-11T03:32:19.997Z,2.40
2022-12-11T03:35:34.229Z,2.50
2022-12-11T03:38:09.893Z,2.30
2022-12-11T03:40:42.279Z,2.50
2022-12-11T03:43:11.866Z,2.80
2022-12-11T03:45:41.290Z,2.30
2022-12-11T03:48:10.394Z,2.50
2022-12-11T03:50:38.539Z,2.60
2022-12-11T03:53:06.372Z,2.30
2022-12-11T03:55:37.166Z,2.50
2022-12-11T03:58:05.255Z,2.50
2022-12-11T04:00:32.695Z,2.40
2022-12-11T04:03:16.134Z,2.70
2022-12-11T04:05:53.207Z,2.50
2022-12-11T04:08:21.898Z,2.30
2022-12-11T04:11:13.157Z,2.20
2022-12-11T04:13:41.714Z,2.40
2022-12-11T04:16:09.361Z,2.30
2022-12-11T04:18:55.287Z,2.60
2022-12-11T04:21:40.681Z,2.30
2022-12-11T04:24:17.146Z,2.40
2022-12-11T04:26:47.622Z,2.30
2022-12-11T04:29:15.148Z,2.30
2022-12-11T04:31:42.244Z,2.30
2022-12-11T04:34:09.572Z,2.30
2022-12-11T04:36:36.564Z,2.30
2022-12-11T04:39:05.891Z,2.50
2022-12-11T04:41:32.905Z,2.10
2022-12-11T04:44:00.062Z,2.20
2022-12-11T04:46:27.305Z,2.30
2022-12-11T04:48:57.691Z,2.40
2022-12-11T04:51:25.421Z,2.30
2022-12-11T04:53:52.911Z,2.30
2022-12-11T04:56:20.376Z,2.20
2022-12-11T04:58:48.473Z,2.10
2022-12-11T05:01:22.699Z,2.40
2022-12-11T05:03:50.439Z,2.40
2022-12-11T05:06:17.654Z,2.20
2022-12-11T05:08:45.493Z,2.00
2022-12-11T05:11:15.411Z,2.50
2022-12-11T05:13:43.550Z,2.50
2022-12-11T05:16:14.694Z,2.50
2022-12-11T05:18:42.106Z,2.40
2022-12-11T05:21:13.187Z,2.30
2022-12-11T05:23:41.200Z,2.30
2022-12-11T05:26:17.625Z,2.30
2022-12-11T05:28:45.739Z,2.30
2022-12-11T05:31:20.160Z,2.20
2022-12-11T05:33:50.351Z,2.40
2022-12-11T05:36:21.576Z,2.30
2022-12-11T05:38:49.676Z,2.30
2022-12-11T05:41:21.992Z,2.20
2022-12-11T05:43:49.417Z,2.60
2022-12-11T05:46:23.467Z,2.50
2022-12-11T05:48:56.312Z,2.30
2022-12-11T05:51:23.772Z,2.00
2022-12-11T05:53:52.774Z,2.30
2022-12-11T05:56:30.183Z,2.20
2022-12-11T05:58:59.253Z,2.40
2022-12-11T06:01:33.455Z,2.10
2022-12-11T06:04:01.572Z,2.20
2022-12-11T06:06:29.436Z,1.90
2022-12-11T06:08:58.797Z,2.20
2022-12-11T06:11:30.347Z,2.20
2022-12-11T06:13:57.511Z,1.90
2022-12-11T06:16:25.793Z,2.20
2022-12-11T06:18:57.882Z,2.30
2022-12-11T06:21:32.678Z,2.30
2022-12-11T06:24:03.801Z,2.10
2022-12-11T06:26:32.350Z,2.00
2022-12-11T06:28:59.805Z,1.80
2022-12-11T06:31:27.324Z,2.10
2022-12-11T06:33:55.207Z,2.10
2022-12-11T06:36:27.026Z,2.00
2022-12-11T06:38:55.754Z,2.30
2022-12-11T06:41:22.754Z,2.10
2022-12-11T06:43:50.829Z,2.10
2022-12-11T06:46:20.019Z,2.30
2022-12-11T06:48:48.615Z,1.90
2022-12-11T06:51:22.381Z,2.00
2022-12-11T06:53:57.003Z,2.00
2022-12-11T06:56:25.463Z,2.10
2022-12-11T06:58:52.487Z,2.40
2022-12-11T07:01:29.476Z,2.30
2022-12-11T07:04:00.304Z,2.10
2022-12-11T07:06:29.295Z,2.20
2022-12-11T07:08:57.103Z,2.20
2022-12-11T07:11:24.315Z,2.50
2022-12-11T07:13:51.289Z,2.20
2022-12-11T07:16:19.411Z,2.30
2022-12-11T07:18:51.434Z,2.30
2022-12-11T07:21:22.677Z,2.30
2022-12-11T07:23:51.072Z,2.30
2022-12-11T07:26:22.192Z,2.10
2022-12-11T07:28:50.314Z,2.50
2022-12-11T07:31:23.198Z,2.30
2022-12-11T07:33:59.227Z,2.60
2022-12-11T07:36:27.846Z,2.70
2022-12-11T07:38:55.365Z,2.20
2022-12-11T07:41:26.276Z,2.50
2022-12-11T07:43:54.322Z,2.80
2022-12-11T07:46:28.658Z,2.60
2022-12-11T07:49:01.002Z,2.90
2022-12-11T07:51:31.292Z,2.90
2022-12-11T07:54:05.722Z,2.90
2022-12-11T07:56:43.855Z,2.90
2022-12-11T07:59:25.695Z,2.80
2022-12-11T08:01:58.340Z,2.90
2022-12-11T08:04:25.459Z,3.00
2022-12-11T08:06:52.480Z,3.10
2022-12-11T08:09:22.705Z,2.70
2022-12-11T08:11:50.846Z,3.20
2022-12-11T08:14:21.178Z,2.90
2022-12-11T08:16:49.796Z,2.90
2022-12-11T08:19:25.268Z,2.90
2022-12-11T08:21:52.499Z,2.90
2022-12-11T08:24:20.674Z,2.80
2022-12-11T08:26:48.595Z,3.00
2022-12-11T08:29:15.797Z,2.90
2022-12-11T08:31:42.965Z,3.00
2022-12-11T08:34:13.897Z,3.30
2022-12-11T08:36:41.559Z,3.00
2022-12-11T08:39:13.222Z,3.00
2022-12-11T08:44:31.550Z,3.20
2022-12-11T08:46:58.498Z,3.10
2022-12-11T08:49:32.717Z,3.20
2022-12-11T08:52:02.109Z,3.20
2022-12-11T08:54:29.185Z,3.70
2022-12-11T08:56:58.123Z,3.40
2022-12-11T08:59:26.003Z,3.20
2022-12-11T09:01:54.990Z,3.40
2022-12-11T09:04:23.183Z,3.50
2022-12-11T09:06:50.453Z,3.60
2022-12-11T09:09:18.867Z,3.70
2022-12-11T09:11:45.975Z,3.50
2022-12-11T09:14:13.168Z,3.60
2022-12-11T09:16:41.010Z,3.60
2022-12-11T09:19:13.156Z,3.50
2022-12-11T09:21:41.588Z,3.50
2022-12-11T09:24:11.339Z,3.50
2022-12-11T09:26:39.302Z,3.40
2022-12-11T09:29:07.887Z,3.40
2022-12-11T09:31:37.291Z,3.20
2022-12-11T09:34:09.267Z,2.90
2022-12-11T09:36:39.262Z,3.30
2022-12-11T09:39:09.397Z,3.20
2022-12-11T09:41:48.020Z,3.50
2022-12-11T09:44:53.549Z,3.20
2022-12-11T09:47:26.184Z,2.90
2022-12-11T09:50:09.781Z,3.20
2022-12-11T09:53:08.445Z,3.10
2022-12-11T09:55:50.503Z,3.00
2022-12-11T09:58:23.877Z,3.10
2022-12-11T10:01:20.526Z,3.10
2022-12-11T10:04:11.476Z,3.10
2022-12-11T10:07:16.703Z,3.10
2022-12-11T10:10:24.342Z,3.30
2022-12-11T10:13:17.684Z,3.10
2022-12-11T10:16:04.103Z,3.00
2022-12-11T10:18:33.171Z,3.00
2022-12-11T10:21:04.146Z,3.00
2022-12-11T10:23:43.472Z,3.00
2022-12-11T10:26:29.736Z,3.00
2022-12-11T10:29:01.155Z,3.00
2022-12-11T10:31:53.398Z,3.00
2022-12-11T10:34:39.939Z,3.00
2022-12-11T10:37:07.014Z,3.10
2022-12-11T10:39:34.043Z,3.10
2022-12-11T10:42:17.635Z,3.10
2022-12-11T10:45:01.042Z,3.00
2022-12-11T10:47:29.316Z,3.00
2022-12-11T10:50:00.439Z,3.20
2022-12-11T10:52:45.109Z,3.20
2022-12-11T10:55:25.009Z,3.40
2022-12-11T10:58:03.675Z,3.10
2022-12-11T11:00:42.180Z,3.40
2022-12-11T11:03:25.014Z,3.10
2022-12-11T11:06:15.134Z,3.30
2022-12-11T11:08:50.128Z,3.30
2022-12-11T11:11:27.201Z,5.50
2022-12-11T11:14:20.131Z,3.50
2022-12-11T11:16:51.697Z,3.40
2022-12-11T11:19:33.669Z,3.40
2022-12-11T11:22:12.840Z,3.50
2022-12-11T11:24:52.570Z,3.60
2022-12-11T11:27:29.478Z,3.40
2022-12-11T11:30:02.645Z,3.50
2022-12-11T11:32:36.870Z,3.70
2022-12-11T11:35:13.519Z,3.40
2022-12-11T11:37:46.189Z,3.60
2022-12-11T11:40:27.352Z,3.50
2022-12-11T11:43:16.460Z,3.50
2022-12-11T11:46:03.391Z,3.50
2022-12-11T11:48:48.323Z,3.30
2022-12-11T11:51:49.484Z,3.20
2022-12-11T11:54:34.640Z,3.30
2022-12-11T11:57:37.733Z,2.90
2022-12-11T12:00:23.084Z,3.10
2022-12-11T12:03:09.479Z,3.20
2022-12-11T12:05:50.700Z,3.20
2022-12-11T12:08:43.849Z,3.20
2022-12-11T12:11:39.124Z,3.00
2022-12-11T12:15:04.346Z,3.10
2022-12-11T12:17:41.250Z,3.30
2022-12-11T12:20:19.770Z,3.00
2022-12-11T12:23:11.947Z,3.10
2022-12-11T12:26:19.559Z,3.00
2022-12-11T12:28:59.180Z,3.00
2022-12-11T12:31:41.905Z,3.00
2022-12-11T12:34:33.202Z,2.90
2022-12-11T12:37:40.608Z,3.00
2022-12-11T12:40:59.219Z,3.10
2022-12-11T12:43:38.284Z,3.20
2022-12-11T12:46:44.049Z,3.20
2022-12-11T12:49:44.770Z,3.00
2022-12-11T12:52:29.736Z,3.10
2022-12-11T12:55:14.081Z,3.10
2022-12-11T12:58:01.184Z,3.20
2022-12-11T13:00:34.241Z,3.00
2022-12-11T13:03:14.581Z,2.80
2022-12-11T13:05:56.620Z,2.80
2022-12-11T13:08:41.138Z,2.80
2022-12-11T13:11:15.367Z,2.80
2022-12-11T13:14:15.918Z,3.00
2022-12-11T13:16:49.845Z,3.00
2022-12-11T13:19:25.962Z,3.10
2022-12-11T13:22:16.946Z,3.10
2022-12-11T13:24:47.036Z,3.30
2022-12-11T13:27:41.981Z,3.30
2022-12-11T13:30:15.155Z,3.20
2022-12-11T13:32:59.263Z,3.10
2022-12-11T13:35:27.078Z,3.30
2022-12-11T13:37:56.370Z,3.50
2022-12-11T13:40:30.143Z,3.40
2022-12-11T13:43:06.025Z,3.10
2022-12-11T13:45:58.165Z,3.60
2022-12-11T13:48:34.337Z,3.40
2022-12-11T13:51:02.755Z,3.10
2022-12-11T13:53:29.822Z,2.60
2022-12-11T13:56:05.001Z,2.60
2022-12-11T13:58:39.562Z,2.60
2022-12-11T14:01:32.563Z,2.50
2022-12-11T14:04:12.715Z,2.70
2022-12-11T14:06:40.689Z,2.50
2022-12-11T14:09:09.300Z,2.40
2022-12-11T14:11:42.210Z,2.20
2022-12-11T14:14:46.970Z,2.10
2022-12-11T14:17:18.160Z,2.00
2022-12-11T14:19:49.315Z,2.20
2022-12-11T14:22:26.551Z,2.00
2022-12-11T14:25:02.784Z,1.80
2022-12-11T14:27:30.746Z,2.00
2022-12-11T14:29:57.805Z,2.00
2022-12-11T14:32:45.125Z,1.60
2022-12-11T14:35:38.439Z,1.90
2022-12-11T14:38:27.252Z,2.10
2022-12-11T14:41:01.264Z,1.90
2022-12-11T14:43:40.629Z,2.10
2022-12-11T14:46:17.129Z,1.80
2022-12-11T14:49:01.084Z,2.00
2022-12-11T14:51:35.768Z,1.80
2022-12-11T14:54:05.142Z,1.80
2022-12-11T14:56:33.422Z,2.00
2022-12-11T14:59:05.347Z,1.80
2022-12-11T15:01:37.908Z,1.70
2022-12-11T15:04:30.685Z,1.80
2022-12-11T15:06:59.566Z,1.80
2022-12-11T15:09:38.550Z,1.70
2022-12-11T15:12:16.339Z,1.70
2022-12-11T15:14:53.954Z,1.50
2022-12-11T15:17:22.930Z,1.70
2022-12-11T15:20:06.369Z,1.70
2022-12-11T15:22:34.578Z,1.60
2022-12-11T15:25:02.187Z,1.60
2022-12-11T15:27:39.986Z,1.70
2022-12-11T15:30:31.510Z,1.30
2022-12-11T15:33:10.813Z,1.40
2022-12-11T15:35:40.680Z,1.50
2022-12-11T15:38:29.723Z,1.40
2022-12-11T15:40:58.165Z,1.60
2022-12-11T15:43:25.927Z,1.70
2022-12-11T15:45:53.239Z,1.80
2022-12-11T15:48:20.799Z,1.60
2022-12-11T15:50:48.228Z,1.60
2022-12-11T15:53:15.285Z,1.40
2022-12-11T15:55:42.428Z,1.30
2022-12-11T15:58:17.749Z,1.40
2022-12-11T16:00:46.131Z,1.30
2022-12-11T16:03:16.237Z,1.50
2022-12-11T16:05:43.407Z,1.10
2022-12-11T16:08:15.344Z,1.40
2022-12-11T16:10:47.077Z,1.40
2022-12-11T16:13:14.971Z,0.90
2022-12-11T16:15:46.456Z,1.40
2022-12-11T16:18:19.667Z,1.30
2022-12-11T16:20:57.871Z,1.50
2022-12-11T16:23:29.829Z,1.40
2022-12-11T16:26:06.926Z,1.20
2022-12-11T16:28:34.060Z,1.40
2022-12-11T16:31:02.051Z,0.90
2022-12-11T16:33:29.881Z,1.30
2022-12-11T16:35:58.112Z,1.20
2022-12-11T16:38:25.354Z,1.10
2022-12-11T16:41:01.320Z,1.10
2022-12-11T16:43:28.347Z,1.10
2022-12-11T16:45:56.229Z,1.10
2022-12-11T16:48:23.360Z,1.10
2022-12-11T16:50:54.505Z,1.00
2022-12-11T16:53:22.274Z,1.00
2022-12-11T16:55:49.846Z,1.20
2022-12-11T16:58:20.036Z,1.10
2022-12-11T17:00:48.862Z,1.00
2022-12-11T17:03:16.518Z,1.20
2022-12-11T17:05:45.222Z,1.00
2022-12-11T17:08:12.435Z,1.00
2022-12-11T17:10:45.055Z,1.10
2022-12-11T17:13:12.423Z,1.00
2022-12-11T17:15:44.507Z,0.70
2022-12-11T17:18:12.711Z,1.00
2022-12-11T17:20:42.620Z,1.20
2022-12-11T17:23:13.584Z,1.00
2022-12-11T17:25:42.659Z,1.10
2022-12-11T17:28:11.726Z,0.90
2022-12-11T17:30:45.839Z,0.50
2022-12-11T17:33:13.305Z,1.00
2022-12-11T17:35:40.454Z,0.70
2022-12-11T17:38:07.873Z,0.60
2022-12-11T17:40:35.224Z,1.00
2022-12-11T17:43:06.365Z,1.00
2022-12-11T17:45:33.468Z,1.00
2022-12-11T17:48:00.569Z,0.60
2022-12-11T17:50:27.578Z,0.80
2022-12-11T17:52:54.560Z,0.80
2022-12-11T17:55:21.731Z,1.00
2022-12-11T17:57:52.490Z,0.70
2022-12-11T18:00:24.590Z,0.60
2022-12-11T18:02:53.537Z,0.70
2022-12-11T18:05:20.665Z,0.70
2022-12-11T18:07:50.573Z,0.70
2022-12-11T18:10:21.613Z,0.60
2022-12-11T18:12:48.804Z,0.60
2022-12-11T18:15:18.511Z,0.40
2022-12-11T18:17:46.307Z,0.60
2022-12-11T18:20:17.247Z,0.70
2022-12-11T18:22:44.404Z,0.60
2022-12-11T18:25:12.197Z,0.60
2022-12-11T18:27:39.889Z,0.60
2022-12-11T18:30:15.853Z,0.60
2022-12-11T18:32:56.142Z,0.60
2022-12-11T18:35:23.436Z,0.60
2022-12-11T18:37:50.899Z,0.90
2022-12-11T18:40:18.323Z,0.60
2022-12-11T18:42:45.514Z,0.60
2022-12-11T18:45:12.895Z,0.80
2022-12-11T18:47:40.334Z,0.70
2022-12-11T18:50:08.490Z,0.70
2022-12-11T18:52:35.890Z,0.80
2022-12-11T18:55:08.851Z,0.70
2022-12-11T18:57:36.044Z,0.70
2022-12-11T19:00:07.509Z,0.60
2022-12-11T19:02:35.714Z,0.60
2022-12-11T19:05:03.312Z,0.50
2022-12-11T19:07:30.489Z,0.50
2022-12-11T19:09:57.520Z,0.60
2022-12-11T19:12:24.577Z,0.50
2022-12-11T19:14:51.630Z,0.50
2022-12-11T19:17:18.780Z,0.70
2022-12-11T19:19:49.645Z,0.50
2022-12-11T19:22:16.830Z,0.50
2022-12-11T19:24:44.050Z,0.70
2022-12-11T19:27:13.620Z,0.80
2022-12-11T19:29:41.447Z,0.40
2022-12-11T19:32:08.625Z,0.80
2022-12-11T19:34:35.965Z,0.40
2022-12-11T19:37:03.081Z,0.80
2022-12-11T19:39:30.383Z,0.50
2022-12-11T19:41:57.734Z,0.50
2022-12-11T19:44:27.751Z,0.50
2022-12-11T19:46:54.996Z,0.40
2022-12-11T19:49:22.298Z,0.70
2022-12-11T19:51:49.616Z,0.50
2022-12-11T19:54:18.220Z,0.30
2022-12-11T19:56:46.166Z,0.40
2022-12-11T19:59:18.147Z,0.50
2022-12-11T20:01:48.306Z,0.50
2022-12-11T20:04:17.117Z,0.70
2022-12-11T20:06:47.602Z,0.50
2022-12-11T20:09:15.528Z,0.50
2022-12-11T20:11:45.076Z,0.50
2022-12-11T20:14:26.724Z,0.40
2022-12-11T20:17:12.135Z,0.60
2022-12-11T20:19:40.761Z,0.50
2022-12-11T20:22:09.134Z,0.10
2022-12-11T20:24:36.601Z,0.40
2022-12-11T20:27:03.811Z,0.10
2022-12-11T20:29:30.870Z,0.20
2022-12-11T20:31:59.810Z,0.20
2022-12-11T20:34:31.015Z,0.40
2022-12-11T20:37:00.357Z,0.20
2022-12-11T20:39:27.405Z,0.20
2022-12-11T20:41:54.523Z,0.10
2022-12-11T20:44:21.744Z,0.20
2022-12-11T20:46:48.913Z,0.30
2022-12-11T20:49:15.899Z,0.20
2022-12-11T20:51:44.826Z,0.30
2022-12-11T20:54:11.872Z,0.20
2022-12-11T20:56:39.294Z,0.30
2022-12-11T20:59:07.071Z,0.60
2022-12-11T21:01:35.079Z,0.30
2022-12-11T21:04:04.374Z,0.50
2022-12-11T21:06:38.780Z,0.30
2022-12-11T21:09:17.741Z,0.30
2022-12-11T21:11:45.342Z,0.40
2022-12-11T21:14:13.382Z,0.30
2022-12-11T21:16:40.802Z,0.40
2022-12-11T21:19:11.306Z,0.30
2022-12-11T21:21:42.880Z,0.30
2022-12-11T21:24:23.385Z,0.20
2022-12-11T21:26:50.647Z,0.20
2022-12-11T21:29:18.337Z,0.30
2022-12-11T21:31:45.360Z,0.10
2022-12-11T21:34:12.572Z,0.20
2022-12-11T21:36:41.966Z,0.00
2022-12-11T21:39:09.094Z,-0.10
2022-12-11T21:41:36.278Z,0.00
2022-12-11T21:46:50.541Z,-0.20
2022-12-11T21:49:17.627Z,-0.20
2022-12-11T21:51:47.368Z,-0.20
2022-12-11T21:54:18.767Z,-0.20
2022-12-11T21:56:57.857Z,-0.30
2022-12-11T21:59:25.139Z,-0.10
2022-12-11T22:01:52.305Z,-0.30
2022-12-11T22:04:19.315Z,-0.30
2022-12-11T22:06:47.331Z,-0.30
2022-12-11T22:09:16.337Z,-0.30
2022-12-11T22:11:45.912Z,-0.50
2022-12-11T22:14:16.161Z,-0.20
2022-12-11T22:16:44.161Z,-0.40
2022-12-11T22:19:12.224Z,-0.40
2022-12-11T22:21:39.907Z,-0.40
2022-12-11T22:24:11.271Z,-0.20
2022-12-11T22:26:39.199Z,-0.40
2022-12-11T22:29:06.388Z,-0.20
2022-12-11T22:31:33.603Z,-0.60
2022-12-11T22:34:00.620Z,-0.20
2022-12-11T22:36:27.990Z,-0.70
2022-12-11T22:38:55.394Z,-0.30
2022-12-11T22:41:32.797Z,-0.50
2022-12-11T22:44:00.438Z,-0.40
2022-12-11T22:46:30.386Z,-0.40
2022-12-11T22:48:58.714Z,-0.40
2022-12-11T22:51:26.211Z,-0.40
2022-12-11T22:53:53.257Z,-0.50
2022-12-11T22:56:20.473Z,-0.50
2022-12-11T22:58:49.902Z,-0.50
2022-12-11T23:01:21.356Z,-0.50
2022-12-11T23:03:49.128Z,-0.50
2022-12-11T23:06:25.056Z,-0.70
2022-12-11T23:08:55.096Z,-0.60
2022-12-11T23:11:29.912Z,-0.50
2022-12-11T23:13:57.611Z,-0.20
2022-12-11T23:16:27.250Z,-0.60
2022-12-11T23:18:56.627Z,-0.70
2022-12-11T23:21:26.715Z,-0.40
2022-12-11T23:23:54.557Z,-0.60
2022-12-11T23:26:21.900Z,-0.60
2022-12-11T23:28:49.963Z,-0.60
2022-12-11T23:31:18.172Z,-0.70
2022-12-11T23:33:45.456Z,-0.70
2022-12-11T23:36:13.394Z,-0.60
2022-12-11T23:38:40.831Z,-0.70
2022-12-11T23:41:11.692Z,-0.60
2022-12-11T23:43:39.970Z,-0.60
2022-12-11T23:46:21.211Z,-0.40
2022-12-11T23:48:49.157Z,-0.20
2022-12-11T23:51:19.558Z,-0.60
2022-12-11T23:53:47.231Z,-0.60
2022-12-11T23:56:20.017Z,-0.60
2022-12-11T23:58:47.389Z,-0.70
